createdAt,value
2019-04-05T00:01:18.913Z,13.87
2019-04-05T00:03:51.942Z,12.40
2019-04-05T00:06:25.202Z,11.33
2019-04-05T00:08:58.338Z,13.90
2019-04-05T00:11:31.165Z,15.27
2019-04-05T00:14:04.070Z,14.10
2019-04-05T00:16:36.905Z,16.40
2019-04-05T00:19:11.097Z,14.47
2019-04-05T00:21:44.196Z,14.20
2019-04-05T00:24:17.111Z,13.93
2019-04-05T00:26:49.906Z,13.10
2019-04-05T00:29:22.703Z,12.50
2019-04-05T00:31:55.682Z,13.33
2019-04-05T00:34:28.573Z,12.63
2019-04-05T00:37:01.383Z,16.27
2019-04-05T00:39:34.512Z,14.43
2019-04-05T00:42:07.342Z,12.40
2019-04-05T00:44:41.347Z,19.17
2019-04-05T00:47:30.933Z,12.93
2019-04-05T00:50:04.402Z,16.10
2019-04-05T00:52:37.443Z,16.27
2019-04-05T00:55:11.158Z,15.33
2019-04-05T00:57:44.136Z,12.43
2019-04-05T01:00:17.882Z,16.47
2019-04-05T01:02:50.758Z,15.90
2019-04-05T01:05:22.953Z,14.70
2019-04-05T01:07:55.212Z,11.53
2019-04-05T01:10:27.216Z,15.33
2019-04-05T01:13:00.009Z,13.10
2019-04-05T01:15:40.807Z,14.77
2019-04-05T01:18:06.061Z,14.97
2019-04-05T01:20:40.822Z,12.67
2019-04-05T01:23:14.916Z,15.17
2019-04-05T01:25:48.410Z,17.67
2019-04-05T01:28:20.977Z,15.73
2019-04-05T01:30:52.969Z,14.57
2019-04-05T01:33:25.439Z,13.10
2019-04-05T01:35:57.414Z,15.83
2019-04-05T01:38:29.778Z,12.40
2019-04-05T01:41:02.485Z,14.40
2019-04-05T01:43:34.501Z,16.53
2019-04-05T01:46:06.918Z,12.20
2019-04-05T01:48:39.183Z,13.53
2019-04-05T01:51:11.338Z,21.47
2019-04-05T01:53:44.010Z,16.93
2019-04-05T01:56:16.212Z,16.37
2019-04-05T01:58:48.495Z,17.23
2019-04-05T02:01:21.076Z,17.07
2019-04-05T02:03:53.309Z,20.67
2019-04-05T02:06:26.060Z,13.80
2019-04-05T02:08:58.237Z,13.00
2019-04-05T02:11:30.520Z,16.37
2019-04-05T02:14:02.770Z,16.97
2019-04-05T02:16:35.258Z,15.37
2019-04-05T02:19:07.485Z,15.87
2019-04-05T02:21:39.844Z,18.30
2019-04-05T02:24:12.221Z,13.23
2019-04-05T02:26:44.674Z,17.00
2019-04-05T02:29:16.942Z,14.57
2019-04-05T02:31:49.067Z,13.87
2019-04-05T02:34:21.446Z,15.77
2019-04-05T02:36:53.466Z,14.53
2019-04-05T02:39:25.532Z,15.67
2019-04-05T02:41:59.434Z,13.50
2019-04-05T02:44:34.470Z,15.47
2019-04-05T02:47:07.562Z,16.00
2019-04-05T02:49:41.723Z,13.90
2019-04-05T02:52:17.127Z,14.87
2019-04-05T02:54:51.445Z,16.97
2019-04-05T02:57:25.271Z,14.27
2019-04-05T02:59:58.235Z,19.03
2019-04-05T03:02:32.165Z,20.97
2019-04-05T03:05:04.408Z,13.80
2019-04-05T03:07:36.704Z,15.63
2019-04-05T03:10:09.405Z,15.10
2019-04-05T03:12:41.918Z,19.03
2019-04-05T03:15:14.751Z,13.57
2019-04-05T03:17:47.274Z,14.27
2019-04-05T03:20:19.790Z,12.80
2019-04-05T03:22:52.064Z,14.03
2019-04-05T03:25:24.494Z,13.90
2019-04-05T03:27:57.100Z,12.20
2019-04-05T03:30:29.592Z,14.93
2019-04-05T03:33:02.261Z,14.40
2019-04-05T03:35:34.520Z,14.33
2019-04-05T03:38:07.555Z,18.50
2019-04-05T03:40:40.509Z,15.67
2019-04-05T03:43:13.386Z,17.47
2019-04-05T03:45:46.507Z,17.70
2019-04-05T03:48:19.105Z,15.00
2019-04-05T03:50:51.577Z,14.53
2019-04-05T03:53:24.436Z,11.67
2019-04-05T03:55:57.447Z,15.27
2019-04-05T03:58:30.479Z,18.93
2019-04-05T04:01:03.476Z,18.33
2019-04-05T04:03:36.352Z,16.60
2019-04-05T04:06:08.885Z,18.23
2019-04-05T04:08:42.259Z,21.50
2019-04-05T04:11:14.511Z,27.23
2019-04-05T04:13:47.352Z,16.83
2019-04-05T04:16:20.193Z,21.53
2019-04-05T04:18:53.035Z,19.47
2019-04-05T04:21:40.774Z,14.93
2019-04-05T04:24:13.332Z,16.17
2019-04-05T04:26:46.270Z,15.13
2019-04-05T04:29:19.917Z,19.37
2019-04-05T04:31:53.141Z,20.40
2019-04-05T04:34:25.557Z,34.57
2019-04-05T04:36:57.855Z,35.43
2019-04-05T04:39:30.506Z,28.87
2019-04-05T04:42:04.978Z,25.80
2019-04-05T04:44:37.652Z,17.23
2019-04-05T04:47:10.153Z,14.90
2019-04-05T04:49:43.090Z,15.50
2019-04-05T04:52:16.589Z,16.10
2019-04-05T04:54:48.984Z,17.57
2019-04-05T04:57:21.433Z,16.00
2019-04-05T04:59:54.478Z,14.90
2019-04-05T05:02:27.409Z,15.70
2019-04-05T05:05:00.364Z,16.37
2019-04-05T05:07:33.150Z,20.70
2019-04-05T05:10:06.666Z,14.97
2019-04-05T05:12:39.647Z,23.67
2019-04-05T05:15:13.030Z,19.80
2019-04-05T05:17:57.996Z,18.40
2019-04-05T05:20:21.034Z,19.33
2019-04-05T05:22:54.303Z,25.70
2019-04-05T05:25:27.173Z,25.23
2019-04-05T05:28:00.440Z,29.93
2019-04-05T05:30:33.157Z,26.90
2019-04-05T05:33:06.157Z,27.13
2019-04-05T05:35:38.944Z,22.87
2019-04-05T05:38:11.579Z,26.07
2019-04-05T05:40:44.111Z,25.20
2019-04-05T05:43:17.030Z,20.50
2019-04-05T05:45:49.458Z,31.77
2019-04-05T05:48:22.234Z,24.10
2019-04-05T05:50:55.550Z,22.87
2019-04-05T05:53:29.064Z,23.03
2019-04-05T05:56:01.496Z,31.47
2019-04-05T05:58:33.864Z,27.30
2019-04-05T06:01:07.203Z,44.40
2019-04-05T06:03:39.598Z,49.60
2019-04-05T06:06:11.878Z,27.57
2019-04-05T06:08:44.389Z,56.90
2019-04-05T06:11:16.940Z,24.03
2019-04-05T06:13:49.609Z,28.07
2019-04-05T06:16:21.990Z,49.70
2019-04-05T06:18:54.301Z,29.70
2019-04-05T06:21:26.897Z,37.13
2019-04-05T06:23:59.517Z,33.20
2019-04-05T06:26:31.907Z,30.20
2019-04-05T06:29:04.571Z,32.30
2019-04-05T06:31:39.013Z,30.07
2019-04-05T06:34:11.655Z,24.40
2019-04-05T06:36:44.287Z,28.40
2019-04-05T06:39:16.854Z,30.73
2019-04-05T06:41:49.136Z,29.20
2019-04-05T06:44:21.920Z,24.87
2019-04-05T06:46:54.323Z,26.50
2019-04-05T06:49:26.710Z,27.27
2019-04-05T06:51:59.019Z,24.47
2019-04-05T06:54:33.687Z,27.70
2019-04-05T06:57:06.273Z,26.53
2019-04-05T06:59:38.681Z,22.37
2019-04-05T07:02:10.980Z,33.17
2019-04-05T07:04:43.463Z,23.60
2019-04-05T07:07:17.862Z,24.60
2019-04-05T07:09:49.675Z,23.80
2019-04-05T07:12:22.485Z,23.73
2019-04-05T07:14:56.313Z,30.87
2019-04-05T07:17:29.239Z,35.33
2019-04-05T07:20:01.638Z,29.23
2019-04-05T07:22:39.165Z,31.00
2019-04-05T07:25:08.587Z,30.60
2019-04-05T07:27:41.118Z,24.23
2019-04-05T07:30:14.459Z,25.53
2019-04-05T07:32:47.005Z,21.77
2019-04-05T07:35:32.665Z,26.27
2019-04-05T07:37:53.608Z,27.57
2019-04-05T07:40:26.473Z,23.00
2019-04-05T07:42:59.118Z,25.70
2019-04-05T07:45:31.526Z,28.03
2019-04-05T07:48:03.982Z,36.03
2019-04-05T07:50:39.196Z,24.27
2019-04-05T07:53:11.881Z,22.60
2019-04-05T07:55:47.480Z,27.53
2019-04-05T07:58:20.667Z,27.87
2019-04-05T08:00:56.198Z,28.13
2019-04-05T08:03:28.909Z,26.03
2019-04-05T08:06:01.726Z,28.17
2019-04-05T08:09:13.116Z,29.67
2019-04-05T08:11:47.880Z,29.07
2019-04-05T08:14:22.581Z,24.03
2019-04-05T08:16:55.384Z,26.30
2019-04-05T08:19:28.260Z,22.37
2019-04-05T08:22:00.986Z,25.20
2019-04-05T08:24:33.607Z,25.10
2019-04-05T08:27:06.206Z,22.53
2019-04-05T08:32:39.568Z,24.40
2019-04-05T08:35:13.256Z,21.60
2019-04-05T08:37:46.455Z,24.57
2019-04-05T08:40:19.832Z,23.97
2019-04-05T08:42:53.320Z,29.67
2019-04-05T08:45:27.053Z,22.03
2019-04-05T08:48:00.383Z,25.43
2019-04-05T08:50:33.632Z,24.70
2019-04-05T08:53:07.655Z,25.33
2019-04-05T08:55:40.953Z,22.97
2019-04-05T08:58:14.491Z,22.40
2019-04-05T09:00:48.039Z,22.43
2019-04-05T09:03:21.531Z,22.00
2019-04-05T09:05:55.244Z,34.00
2019-04-05T09:08:32.108Z,23.43
2019-04-05T09:11:06.059Z,20.60
2019-04-05T09:13:39.332Z,23.60
2019-04-05T09:16:13.092Z,24.33
2019-04-05T09:18:49.393Z,23.63
2019-04-05T09:21:24.124Z,23.10
2019-04-05T09:23:59.329Z,20.20
2019-04-05T09:26:32.533Z,20.67
2019-04-05T09:29:05.871Z,24.20
2019-04-05T09:31:39.077Z,26.00
2019-04-05T09:34:12.443Z,20.67
2019-04-05T09:36:45.995Z,22.17
2019-04-05T09:39:19.572Z,20.87
2019-04-05T09:41:52.921Z,21.23
2019-04-05T09:44:26.037Z,26.50
2019-04-05T09:47:00.666Z,20.43
2019-04-05T09:49:37.011Z,21.20
2019-04-05T09:52:08.736Z,21.47
2019-04-05T09:54:42.133Z,19.40
2019-04-05T09:57:15.803Z,23.37
2019-04-05T09:59:49.148Z,16.70
2019-04-05T10:02:22.796Z,16.90
2019-04-05T10:04:56.205Z,18.43
2019-04-05T10:07:29.549Z,16.00
2019-04-05T10:10:02.669Z,16.87
2019-04-05T10:12:35.605Z,17.93
2019-04-05T10:15:26.987Z,17.87
2019-04-05T10:18:17.880Z,16.47
2019-04-05T10:21:08.767Z,20.00
2019-04-05T10:23:59.722Z,13.10
2019-04-05T10:26:50.795Z,16.63
2019-04-05T10:29:42.090Z,14.03
2019-04-05T10:32:33.290Z,17.57
2019-04-05T10:35:24.374Z,24.87
2019-04-05T10:38:20.717Z,29.40
2019-04-05T10:41:11.635Z,23.80
2019-04-05T10:44:02.846Z,41.83
2019-04-05T10:46:54.076Z,25.53
2019-04-05T10:49:45.177Z,25.63
2019-04-05T10:52:36.210Z,17.43
2019-04-05T10:55:27.490Z,16.43
2019-04-05T10:58:18.626Z,15.43
2019-04-05T11:01:09.875Z,13.90
2019-04-05T11:04:01.315Z,15.73
2019-04-05T11:06:52.883Z,15.37
2019-04-05T11:09:44.075Z,13.30
2019-04-05T11:12:35.437Z,20.53
2019-04-05T11:15:26.478Z,17.10
2019-04-05T11:18:17.429Z,25.77
2019-04-05T11:21:08.497Z,17.93
2019-04-05T11:24:00.183Z,18.60
2019-04-05T11:26:33.395Z,17.07
2019-04-05T11:29:06.839Z,19.57
2019-04-05T11:31:40.624Z,16.07
2019-04-05T11:34:14.698Z,12.17
2019-04-05T11:36:48.490Z,17.03
2019-04-05T11:39:22.726Z,15.17
2019-04-05T11:41:59.579Z,16.93
2019-04-05T11:44:34.895Z,18.33
2019-04-05T11:47:08.285Z,15.50
2019-04-05T11:49:46.054Z,15.33
2019-04-05T11:52:19.752Z,19.77
2019-04-05T11:54:52.917Z,19.47
2019-04-05T11:57:26.334Z,19.70
2019-04-05T11:59:59.348Z,21.50
2019-04-05T12:02:38.039Z,19.50
2019-04-05T12:05:13.838Z,20.10
2019-04-05T12:07:47.339Z,23.03
2019-04-05T12:10:21.224Z,19.50
2019-04-05T12:12:54.556Z,23.07
2019-04-05T12:15:28.545Z,14.83
2019-04-05T12:18:04.242Z,21.13
2019-04-05T12:20:47.903Z,15.83
2019-04-05T12:23:12.028Z,17.10
2019-04-05T12:25:45.259Z,18.97
2019-04-05T12:28:18.416Z,18.83
2019-04-05T12:30:51.883Z,20.03
2019-04-05T12:33:25.064Z,17.43
2019-04-05T12:35:58.642Z,13.17
2019-04-05T12:38:50.051Z,22.93
2019-04-05T12:41:23.746Z,17.67
2019-04-05T12:43:57.152Z,15.53
2019-04-05T12:46:30.815Z,12.13
2019-04-05T12:49:04.455Z,18.43
2019-04-05T12:51:38.077Z,18.83
2019-04-05T12:54:11.643Z,17.90
2019-04-05T12:56:45.083Z,21.50
2019-04-05T12:59:25.182Z,31.23
2019-04-05T13:01:59.539Z,25.70
2019-04-05T13:04:32.143Z,22.27
2019-04-05T13:07:05.592Z,22.80
2019-04-05T13:09:39.217Z,30.90
2019-04-05T13:12:12.462Z,36.97
2019-04-05T13:14:45.883Z,30.57
2019-04-05T13:17:19.112Z,30.40
2019-04-05T13:19:52.518Z,25.87
2019-04-05T13:22:25.906Z,28.50
2019-04-05T13:24:59.886Z,24.17
2019-04-05T13:27:33.291Z,31.17
2019-04-05T13:30:07.185Z,22.30
2019-04-05T13:32:40.534Z,33.80
2019-04-05T13:35:16.888Z,19.63
2019-04-05T13:37:50.658Z,35.53
2019-04-05T13:40:25.099Z,22.30
2019-04-05T13:43:01.387Z,22.90
2019-04-05T13:45:34.307Z,25.93
2019-04-05T13:48:08.960Z,29.23
2019-04-05T13:50:43.252Z,33.80
2019-04-05T13:53:16.886Z,32.07
2019-04-05T13:55:50.110Z,22.43
2019-04-05T13:58:26.162Z,23.50
2019-04-05T14:00:58.139Z,30.37
2019-04-05T14:03:31.352Z,29.57
2019-04-05T14:06:05.088Z,33.50
2019-04-05T14:08:41.161Z,38.17
2019-04-05T14:11:13.369Z,23.73
2019-04-05T14:13:46.794Z,32.47
2019-04-05T14:16:23.401Z,31.10
2019-04-05T14:18:56.558Z,22.83
2019-04-05T14:21:39.766Z,21.07
2019-04-05T14:24:04.608Z,24.90
2019-04-05T14:26:39.705Z,20.93
2019-04-05T14:29:12.740Z,23.17
2019-04-05T14:31:45.990Z,21.10
2019-04-05T14:34:19.465Z,22.60
2019-04-05T14:36:52.972Z,24.80
2019-04-05T14:39:26.401Z,29.00
2019-04-05T14:42:09.491Z,54.50
2019-04-05T14:44:34.915Z,30.47
2019-04-05T14:47:08.964Z,27.47
2019-04-05T14:49:42.177Z,39.20
2019-04-05T14:52:15.731Z,25.73
2019-04-05T14:54:49.318Z,23.33
2019-04-05T14:57:22.695Z,21.33
2019-04-05T14:59:56.355Z,25.13
2019-04-05T15:02:30.150Z,27.80
2019-04-05T15:05:04.719Z,19.90
2019-04-05T15:07:41.685Z,19.93
2019-04-05T15:10:15.242Z,35.03
2019-04-05T15:12:49.190Z,26.73
2019-04-05T15:15:22.941Z,18.47
2019-04-05T15:17:56.454Z,19.87
2019-04-05T15:20:29.594Z,20.47
2019-04-05T15:23:02.775Z,19.23
2019-04-05T15:25:36.682Z,19.73
2019-04-05T15:28:09.805Z,26.73
2019-04-05T15:30:43.200Z,17.33
2019-04-05T15:33:16.429Z,24.37
2019-04-05T15:35:50.166Z,17.63
2019-04-05T15:38:23.871Z,22.53
2019-04-05T15:40:57.601Z,29.70
2019-04-05T15:43:30.699Z,22.77
2019-04-05T15:46:03.957Z,16.03
2019-04-05T15:48:37.487Z,26.60
2019-04-05T15:51:11.443Z,14.97
2019-04-05T15:53:44.522Z,14.37
2019-04-05T15:56:17.591Z,30.37
2019-04-05T15:58:52.419Z,16.27
2019-04-05T16:01:36.977Z,14.37
2019-04-05T16:04:10.108Z,18.67
2019-04-05T16:06:43.859Z,24.60
2019-04-05T16:09:18.949Z,23.47
2019-04-05T16:11:52.120Z,20.03
2019-04-05T16:14:25.566Z,19.77
2019-04-05T16:16:58.631Z,24.43
2019-04-05T16:19:31.818Z,36.80
2019-04-05T16:22:05.116Z,23.80
2019-04-05T16:24:38.871Z,17.17
2019-04-05T16:27:12.271Z,21.90
2019-04-05T16:29:45.853Z,25.90
2019-04-05T16:32:19.012Z,25.37
2019-04-05T16:34:52.070Z,22.50
2019-04-05T16:37:25.088Z,33.03
2019-04-05T16:39:58.617Z,29.97
2019-04-05T16:42:33.804Z,23.87
2019-04-05T16:45:11.546Z,20.30
2019-04-05T16:47:45.208Z,26.37
2019-04-05T16:50:21.380Z,32.47
2019-04-05T16:52:54.132Z,18.03
2019-04-05T16:55:27.567Z,12.90
2019-04-05T16:58:00.926Z,13.57
2019-04-05T17:00:34.683Z,13.43
2019-04-05T17:03:08.226Z,27.43
2019-04-05T17:05:42.199Z,21.37
2019-04-05T17:08:15.696Z,19.43
2019-04-05T17:10:49.489Z,20.70
2019-04-05T17:13:25.826Z,16.47
2019-04-05T17:16:00.867Z,14.87
2019-04-05T17:18:36.603Z,13.50
2019-04-05T17:21:10.558Z,16.57
2019-04-05T17:23:47.280Z,15.90
2019-04-05T17:26:20.868Z,24.47
2019-04-05T17:28:57.722Z,17.17
2019-04-05T17:31:30.878Z,18.33
2019-04-05T17:34:05.859Z,21.77
2019-04-05T17:36:39.731Z,23.17
2019-04-05T17:39:13.289Z,23.17
2019-04-05T17:41:46.601Z,19.80
2019-04-05T17:44:20.099Z,17.27
2019-04-05T17:46:55.995Z,18.93
2019-04-05T17:49:29.341Z,43.10
2019-04-05T17:52:03.198Z,35.43
2019-04-05T17:54:37.195Z,27.20
2019-04-05T17:57:11.041Z,34.73
2019-04-05T17:59:44.716Z,48.37
2019-04-05T18:02:18.431Z,40.40
2019-04-05T18:04:56.580Z,24.13
2019-04-05T18:07:34.188Z,17.67
2019-04-05T18:10:10.479Z,24.67
2019-04-05T18:13:07.901Z,22.53
2019-04-05T18:15:52.369Z,23.20
2019-04-05T18:18:27.383Z,24.30
2019-04-05T18:21:01.569Z,23.80
2019-04-05T18:23:39.473Z,25.03
2019-04-05T18:26:19.257Z,24.80
2019-04-05T18:28:59.225Z,30.10
2019-04-05T18:31:35.108Z,25.70
2019-04-05T18:34:11.377Z,26.63
2019-04-05T18:36:49.725Z,25.30
2019-04-05T18:39:28.160Z,26.70
2019-04-05T18:42:06.795Z,23.13
2019-04-05T18:44:45.353Z,25.47
2019-04-05T18:47:30.048Z,25.17
2019-04-05T18:50:17.150Z,29.10
2019-04-05T18:52:54.571Z,30.80
2019-04-05T18:55:33.939Z,27.80
2019-04-05T18:58:12.129Z,33.33
2019-04-05T19:00:51.834Z,33.77
2019-04-05T19:03:31.609Z,36.20
2019-04-05T19:06:05.285Z,43.30
2019-04-05T19:08:42.336Z,37.23
2019-04-05T19:11:20.958Z,36.37
2019-04-05T19:14:01.702Z,30.23
2019-04-05T19:16:38.950Z,33.27
2019-04-05T19:19:21.546Z,28.10
2019-04-05T19:21:58.125Z,28.30
2019-04-05T19:24:34.525Z,27.77
2019-04-05T19:27:23.351Z,24.83
2019-04-05T19:48:45.000Z,23.97
2019-04-05T19:51:18.860Z,24.30
2019-04-05T19:54:01.240Z,21.03
2019-04-05T19:56:34.193Z,23.00
2019-04-05T19:59:11.800Z,29.73
2019-04-05T20:01:52.211Z,28.83
2019-04-05T20:04:35.291Z,25.03
2019-04-05T20:07:10.636Z,30.13
2019-04-05T20:09:51.367Z,26.87
2019-04-05T20:12:28.013Z,26.93
2019-04-05T20:15:06.760Z,27.23
2019-04-05T20:17:46.596Z,27.07
2019-04-05T20:20:24.907Z,25.57
2019-04-05T20:23:05.385Z,27.00
2019-04-05T20:25:45.403Z,27.30
2019-04-05T20:28:23.625Z,24.03
2019-04-05T20:31:02.302Z,30.13
2019-04-05T20:33:43.974Z,26.27
2019-04-05T20:36:19.941Z,32.27
2019-04-05T20:39:00.415Z,34.60
2019-04-05T20:41:39.478Z,28.50
2019-04-05T20:44:32.625Z,31.83
2019-04-05T20:47:06.423Z,25.13
2019-04-05T20:49:41.443Z,24.43
2019-04-05T20:52:14.654Z,22.63
2019-04-05T20:54:49.599Z,22.33
2019-04-05T20:57:26.481Z,31.60
2019-04-05T21:00:00.193Z,26.37
2019-04-05T21:02:33.461Z,30.77
2019-04-05T21:05:07.373Z,24.90
2019-04-05T21:07:40.561Z,22.47
2019-04-05T21:10:14.532Z,25.30
2019-04-05T21:12:47.795Z,23.63
2019-04-05T21:15:21.247Z,24.50
2019-04-05T21:17:54.723Z,25.93
2019-04-05T21:20:28.314Z,23.43
2019-04-05T21:23:01.638Z,23.13
2019-04-05T21:25:35.188Z,18.13
2019-04-05T21:28:08.956Z,18.80
2019-04-05T21:30:42.651Z,18.33
2019-04-05T21:33:17.035Z,23.20
2019-04-05T21:35:52.518Z,19.27
2019-04-05T21:38:25.744Z,20.80
2019-04-05T21:40:59.384Z,17.63
2019-04-05T21:43:33.480Z,22.37
2019-04-05T21:46:07.123Z,20.37
2019-04-05T21:48:40.239Z,20.30
2019-04-05T21:51:13.641Z,18.63
2019-04-05T21:53:47.511Z,18.43
2019-04-05T21:56:20.933Z,20.97
2019-04-05T21:58:54.441Z,18.97
2019-04-05T22:01:27.811Z,17.70
2019-04-05T22:04:01.304Z,19.50
2019-04-05T22:06:36.391Z,19.07
2019-04-05T22:09:11.587Z,21.93
2019-04-05T22:11:44.506Z,18.37
2019-04-05T22:14:17.845Z,20.13
2019-04-05T22:16:51.045Z,17.13
2019-04-05T22:19:24.239Z,21.40
2019-04-05T22:21:57.984Z,20.60
2019-04-05T22:24:31.221Z,21.23
2019-04-05T22:27:04.434Z,20.47
2019-04-05T22:29:37.459Z,19.47
2019-04-05T22:32:11.621Z,21.00
2019-04-05T22:34:46.441Z,21.27
2019-04-05T22:37:21.237Z,17.03
2019-04-05T22:39:54.367Z,21.53
2019-04-05T22:42:27.567Z,20.07
2019-04-05T22:45:01.186Z,23.80
2019-04-05T22:47:41.012Z,22.93
2019-04-05T22:50:18.032Z,25.83
2019-04-05T22:52:54.843Z,26.97
2019-04-05T22:55:44.673Z,23.63
2019-04-05T22:58:19.768Z,23.97
2019-04-05T23:00:52.845Z,25.53
2019-04-05T23:03:32.638Z,23.57
2019-04-05T23:06:09.359Z,22.40
2019-04-05T23:08:45.370Z,23.17
2019-04-05T23:11:21.844Z,26.70
2019-04-05T23:13:57.944Z,25.23
2019-04-05T23:16:35.917Z,28.17
2019-04-05T23:19:15.321Z,25.50
2019-04-05T23:21:54.867Z,28.33
2019-04-05T23:24:34.713Z,28.77
2019-04-05T23:27:09.836Z,23.33
2019-04-05T23:29:49.768Z,23.50
2019-04-05T23:32:29.327Z,24.50
2019-04-05T23:35:08.066Z,28.10
2019-04-05T23:37:45.918Z,28.53
2019-04-05T23:40:39.466Z,28.70
2019-04-05T23:43:19.184Z,34.00
2019-04-05T23:45:56.455Z,28.00
2019-04-05T23:48:30.726Z,30.03
2019-04-05T23:51:10.469Z,28.03
2019-04-05T23:53:47.104Z,28.00
2019-04-05T23:56:26.057Z,29.20
2019-04-05T23:59:01.989Z,24.57
